Terminal Aerodrome Forecast
Issued by NWS Amarillo, TX

Home | Current Version | Previous Version | Text Only | Print | Product List | Glossary On
Versions: 1 2 3 4 5 6 7 8 9 10 11 12 13 14 15 16
000
FTUS44 KAMA 050520
TAFDHT
TAF
KDHT 050520Z 0506/0606 16008KT P6SM FEW300
     FM051100 31008KT P6SM SKC
     FM051500 36012KT P6SM SKC
     FM052100 07009KT P6SM SKC=

USA.gov is the U.S. government's official web portal to all federal, state and local government web resources and services.